Map

Track Data

SID SEASON NUMBER BASIN SUBBASIN NAME ISO_TIME NATURE LAT LON WMO_WIND WMO_PRES WMO_AGENCY TRACK_TYPE DIST2LAND LANDFALL IFLAG USA_AGENCY USA_ATCF_ID USA_LAT USA_LON USA_RECORD USA_STATUS USA_WIND USA_PRES USA_SSHS USA_R34_NE USA_R34_SE USA_R34_SW USA_R34_NW USA_R50_NE USA_R50_SE USA_R50_SW USA_R50_NW USA_R64_NE USA_R64_SE USA_R64_SW USA_R64_NW USA_POCI USA_ROCI USA_RMW USA_EYE TOKYO_LAT TOKYO_LON TOKYO_GRADE TOKYO_WIND TOKYO_PRES TOKYO_R50_DIR TOKYO_R50_LONG TOKYO_R50_SHORT TOKYO_R30_DIR TOKYO_R30_LONG TOKYO_R30_SHORT TOKYO_LAND CMA_LAT CMA_LON CMA_CAT CMA_WIND CMA_PRES HKO_LAT HKO_LON HKO_CAT HKO_WIND HKO_PRES NEWDELHI_LAT NEWDELHI_LON NEWDELHI_GRADE NEWDELHI_WIND NEWDELHI_PRES NEWDELHI_CI NEWDELHI_DP NEWDELHI_POCI REUNION_LAT REUNION_LON REUNION_TYPE REUNION_WIND REUNION_PRES REUNION_TNUM REUNION_CI REUNION_RMW REUNION_R34_NE REUNION_R34_SE REUNION_R34_SW REUNION_R34_NW REUNION_R50_NE REUNION_R50_SE REUNION_R50_SW REUNION_R50_NW REUNION_R64_NE REUNION_R64_SE REUNION_R64_SW REUNION_R64_NW BOM_LAT BOM_LON BOM_TYPE BOM_WIND BOM_PRES BOM_TNUM BOM_CI BOM_RMW BOM_R34_NE BOM_R34_SE BOM_R34_SW BOM_R34_NW BOM_R50_NE BOM_R50_SE BOM_R50_SW BOM_R50_NW BOM_R64_NE BOM_R64_SE BOM_R64_SW BOM_R64_NW BOM_ROCI BOM_POCI BOM_EYE BOM_POS_METHOD BOM_PRES_METHOD NADI_LAT NADI_LON NADI_CAT NADI_WIND NADI_PRES WELLINGTON_LAT WELLINGTON_LON WELLINGTON_WIND WELLINGTON_PRES DS824_LAT DS824_LON DS824_STAGE DS824_WIND DS824_PRES TD9636_LAT TD9636_LON TD9636_STAGE TD9636_WIND TD9636_PRES TD9635_LAT TD9635_LON TD9635_WIND TD9635_PRES TD9635_ROCI NEUMANN_LAT NEUMANN_LON NEUMANN_CLASS NEUMANN_WIND NEUMANN_PRES MLC_LAT MLC_LON MLC_CLASS MLC_WIND MLC_PRES USA_GUST BOM_GUST BOM_GUST_PER REUNION_GUST REUNION_GUST_PER USA_SEAHGT USA_SEARAD_NE USA_SEARAD_SE USA_SEARAD_SW USA_SEARAD_NW STORM_SPEED STORM_DIR
1993317N08149 1993 89 WP MM NOT_NAMED 1993-11-13 06:00:00 NR 7.70000 149.400 main 1120 1114 O_____________ jtwc_wp WP321993 7.70000 149.400 15 -1 9 280
1993317N08149 1993 89 WP MM NOT_NAMED 1993-11-13 09:00:00 NR 7.77507 148.955 main 1123 1116 P_____________ WP321993 7.77507 148.955 15 -1 9 276
1993317N08149 1993 89 WP MM NOT_NAMED 1993-11-13 12:00:00 NR 7.80000 148.500 main 1116 1100 O_____________ jtwc_wp WP321993 7.80000 148.500 15 -1 9 268
1993317N08149 1993 89 WP MM NOT_NAMED 1993-11-13 15:00:00 NR 7.73750 148.035 main 1100 1087 P_____________ WP321993 7.73750 148.035 17 -1 9 257
1993317N08149 1993 89 WP MM NOT_NAMED 1993-11-13 18:00:00 NR 7.60000 147.600 main 1087 1064 O_____________ jtwc_wp WP321993 7.60000 147.600 20 -1 8 248
1993317N08149 1993 89 WP MM NOT_NAMED 1993-11-13 21:00:00 NR 7.42987 147.258 main 1064 1042 P_____________ WP321993 7.42987 147.258 20 -1 8 240
1993317N08149 1993 89 WP MM NOT_NAMED 1993-11-14 00:00:00 NR 7.20000 146.900 main 1042 1008 O_____________ jtwc_wp WP321993 7.20000 146.900 20 -1 10 238
1993317N08149 1993 89 WP MM NOT_NAMED 1993-11-14 03:00:00 NR 6.92993 146.445 main 1008 977 P_____________ WP321993 6.92993 146.445 20 -1 12 239
1993317N08149 1993 89 WP MM NOT_NAMED 1993-11-14 06:00:00 NR 6.60000 145.900 main 978 939 O_____________ jtwc_wp WP321993 6.60000 145.900 20 -1 14 238
1993317N08149 1993 89 WP MM NOT_NAMED 1993-11-14 09:00:00 NR 6.19994 145.287 main 941 910 P_____________ WP321993 6.19994 145.287 20 -1 15 238
1993317N08149 1993 89 WP MM NOT_NAMED 1993-11-14 12:00:00 NR 5.80000 144.600 main 912 895 O_____________ jtwc_wp WP321993 5.80000 144.600 20 -1 16 242
1993317N08149 1993 89 WP MM NOT_NAMED 1993-11-14 15:00:00 NR 5.46246 143.865 main 903 896 P_____________ WP321993 5.46246 143.865 20 -1 16 248
1993317N08149 1993 89 WP MM NOT_NAMED 1993-11-14 18:00:00 NR 5.20000 143.100 main 900 856 O_____________ jtwc_wp WP321993 5.20000 143.100 20 -1 16 254
1993317N08149 1993 89 WP MM NOT_NAMED 1993-11-14 21:00:00 NR 5.00508 142.290 main 856 817 P_____________ WP321993 5.00508 142.290 20 -1 15 259
1993317N08149 1993 89 WP MM NOT_NAMED 1993-11-15 00:00:00 NR 4.90000 141.600 main 817 800 O_____________ jtwc_wp WP321993 4.90000 141.600 20 -1 11 262
1993317N08149 1993 89 WP MM NOT_NAMED 1993-11-15 03:00:00 NR 4.85489 141.160 main 800 787 P_____________ WP321993 4.85489 141.160 20 -1 7 270
1993317N08149 1993 89 WP MM NOT_NAMED 1993-11-15 06:00:00 NR 4.90000 140.900 main 787 783 O_____________ jtwc_wp WP321993 4.90000 140.900 20 -1 5 291
1993317N08149 1993 89 WP MM NOT_NAMED 1993-11-15 09:00:00 NR 5.03498 140.683 main 790 790 P_____________ WP321993 5.03498 140.683 20 -1 4 315
1993317N08149 1993 89 WP MM NOT_NAMED 1993-11-15 12:00:00 NR 5.20000 140.600 main 807 807 O_____________ jtwc_wp WP321993 5.20000 140.600 20 -1 3 0
1993317N08149 1993 89 WP MM NOT_NAMED 1993-11-15 15:00:00 NR 5.30750 140.670 main 821 821 P_____________ WP321993 5.30750 140.670 20 -1 3 45
1993317N08149 1993 89 WP MM NOT_NAMED 1993-11-15 18:00:00 NR 5.40000 140.800 main 836 836 O_____________ jtwc_wp WP321993 5.40000 140.800 20 -1 3 49
1993317N08149 1993 89 WP MM NOT_NAMED 1993-11-15 21:00:00 NR 5.49999 140.887 main 850 850 P_____________ WP321993 5.49999 140.887 20 -1 2 27
1993317N08149 1993 89 WP MM NOT_NAMED 1993-11-16 00:00:00 NR 5.60000 140.900 main 860 860 O_____________ jtwc_wp WP321993 5.60000 140.900 20 -1 2 337
1993317N08149 1993 89 WP MM NOT_NAMED 1993-11-16 03:00:00 NR 5.71498 140.803 main 867 867 P_____________ WP321993 5.71498 140.803 20 -1 4 304
1993317N08149 1993 89 WP MM NOT_NAMED 1993-11-16 06:00:00 NR 5.80000 140.600 main 871 864 O_____________ jtwc_wp WP321993 5.80000 140.600 20 -1 5 281
1993317N08149 1993 89 WP MM NOT_NAMED 1993-11-16 09:00:00 NR 5.79997 140.345 main 861 853 P_____________ WP321993 5.79997 140.345 20 -1 6 270
1993317N08149 1993 89 WP MM NOT_NAMED 1993-11-16 12:00:00 NR 5.80000 140.000 main 853 845 O_____________ jtwc_wp WP321993 5.80000 140.000 20 -1 7 275
1993317N08149 1993 89 WP MM NOT_NAMED 1993-11-16 15:00:00 NR 5.86229 139.640 main 854 840 P_____________ WP321993 5.86229 139.640 20 -1 9 283
1993317N08149 1993 89 WP MM NOT_NAMED 1993-11-16 18:00:00 NR 6.00000 139.100 main 840 828 O_____________ jtwc_wp WP321993 6.00000 139.100 20 -1 14 285
1993317N08149 1993 89 WP MM NOT_NAMED 1993-11-16 21:00:00 NR 6.23517 138.260 main 828 823 P_____________ WP321993 6.23517 138.260 20 -1 19 286
1993317N08149 1993 89 WP MM NOT_NAMED 1993-11-17 00:00:00 NR 6.50000 137.300 main 828 826 O_____________ jtwc_wp WP321993 6.50000 137.300 20 -1 18 285
1993317N08149 1993 89 WP MM NOT_NAMED 1993-11-17 03:00:00 NR 6.70715 136.472 main 835 832 P_____________ WP321993 6.70715 136.472 20 -1 17 283
1993317N08149 1993 89 WP MM NOT_NAMED 1993-11-17 06:00:00 NR 6.90000 135.600 main 851 832 O_____________ jtwc_wp WP321993 6.90000 135.600 20 -1 19 282
1993317N08149 1993 89 WP MM NOT_NAMED 1993-11-17 09:00:00 NR 7.11495 134.580 main 832 764 P_____________ WP321993 7.11495 134.580 20 -1 21 281
1993317N08149 1993 89 WP MM NOT_NAMED 1993-11-17 12:00:00 NR 7.30000 133.500 main 756 651 O_____________ jtwc_wp WP321993 7.30000 133.500 20 -1 22 278
1993317N08149 1993 89 WP MM NOT_NAMED 1993-11-17 15:00:00 NR 7.41495 132.420 main 640 540 P_____________ WP321993 7.41495 132.420 20 -1 21 275
1993317N08149 1993 89 WP MM NOT_NAMED 1993-11-17 18:00:00 NR 7.50000 131.400 main 529 441 O_____________ jtwc_wp WP321993 7.50000 131.400 20 -1 19 276
1993317N08149 1993 89 WP MM NOT_NAMED 1993-11-17 21:00:00 NR 7.59969 130.512 main 430 341 P_____________ WP321993 7.59969 130.512 22 -1 17 277
1993317N08149 1993 89 WP MM NOT_NAMED 1993-11-18 00:00:00 NR 7.70000 129.700 main 341 253 O_____________ jtwc_wp WP321993 7.70000 129.700 25 -1 16 276
1993317N08149 1993 89 WP MM NOT_NAMED 1993-11-18 03:00:00 NR 7.78496 128.862 main 253 166 P_____________ WP321993 7.78496 128.862 25 -1 16 277
1993317N08149 1993 89 WP MM NOT_NAMED 1993-11-18 06:00:00 NR 7.90000 128.100 main 166 104 O_____________ jtwc_wp WP321993 7.90000 128.100 25 -1 14 281
1993317N08149 1993 89 WP MM NOT_NAMED 1993-11-18 09:00:00 NR 8.06990 127.433 main 98 55 P_____________ WP321993 8.06990 127.433 25 -1 13 289
1993317N08149 1993 89 WP MM NOT_NAMED 1993-11-18 12:00:00 NR 8.30000 126.900 main 55 31 O_____________ jtwc_wp WP321993 8.30000 126.900 25 -1 11 300
1993317N08149 1993 89 WP MM NOT_NAMED 1993-11-18 15:00:00 NR 8.60736 126.505 main 31 0 P_____________ WP321993 8.60736 126.505 25 -1 9 311
1993317N08149 1993 89 WP MM NOT_NAMED 1993-11-18 18:00:00 NR 8.90000 126.200 main 0 0 O_____________ jtwc_wp WP321993 8.90000 126.200 25 -1 8 309
1993317N08149 1993 89 WP MM NOT_NAMED 1993-11-18 21:00:00 NR 9.08510 125.903 main 0 0 P_____________ WP321993 9.08510 125.903 25 -1 7 297
1993317N08149 1993 89 WP MM NOT_NAMED 1993-11-19 00:00:00 NR 9.20000 125.600 main 0 O_____________ jtwc_wp WP321993 9.20000 125.600 25 -1 6 291

Digital Typhoon Data and Search

About IBTrACS Database

This database is a web-friendly format of International Best Track Archive for Climate Stewardship (IBTrACS), a global best track data archive curated by NOAA dating back to 1842.

Updated: 2021-10-21